Time;durP1;ratioP1;P1;durP2;ratioP2;P2;SDS_P1;SDS_P2;PMS_P1;PMS_P2;Temp;Humidity;BMP_temperature;BMP_pressure;BME280_temperature;BME280_humidity;BME280_pressure;Samples;Min_cycle;Max_cycle;Signal;HPM_P1;HPM_P2
2023/05/27 00:01:59;;;;;;;13.83;7.90;;;14.10;34.20;;;;;;5062548;28;46366;-66
2023/05/27 00:04:25;;;;;;;18.53;8.50;;;14.00;34.00;;;;;;5064740;28;46412;-65
2023/05/27 00:06:50;;;;;;;16.67;8.10;;;14.00;34.20;;;;;;5064038;28;46222;-65
2023/05/27 00:09:16;;;;;;;20.67;9.10;;;13.90;34.00;;;;;;5067314;28;47039;-65
2023/05/27 00:11:42;;;;;;;13.10;8.13;;;13.90;34.20;;;;;;5069111;28;46349;-65
2023/05/27 00:14:09;;;;;;;18.47;7.50;;;13.80;34.20;;;;;;5067448;28;46540;-65
2023/05/27 00:16:36;;;;;;;17.80;8.70;;;13.80;34.20;;;;;;5067027;28;46656;-65
2023/05/27 00:19:03;;;;;;;14.73;7.37;;;13.80;34.30;;;;;;5064589;28;47993;-65
2023/05/27 00:21:29;;;;;;;14.83;8.73;;;13.70;34.20;;;;;;5067212;27;46381;-65
2023/05/27 00:23:57;;;;;;;11.27;7.83;;;13.70;34.30;;;;;;5065025;27;46450;-65
2023/05/27 00:26:23;;;;;;;15.33;8.10;;;13.60;34.30;;;;;;5067246;28;46387;-65
2023/05/27 00:28:49;;;;;;;15.57;8.53;;;13.60;34.50;;;;;;5066116;28;46094;-65
2023/05/27 00:31:15;;;;;;;16.30;7.90;;;13.50;34.70;;;;;;5064680;28;46377;-65
2023/05/27 00:33:40;;;;;;;15.23;9.10;;;13.50;34.90;;;;;;5066662;28;46832;-65
2023/05/27 00:36:06;;;;;;;15.10;9.07;;;13.40;35.00;;;;;;5065550;28;46542;-65
2023/05/27 00:38:32;;;;;;;14.43;8.87;;;13.30;35.10;;;;;;5060248;28;47311;-65
2023/05/27 00:41:01;;;;;;;21.83;8.43;;;13.30;35.30;;;;;;5065164;28;46561;-65
2023/05/27 00:43:27;;;;;;;16.73;8.00;;;13.20;35.50;;;;;;5064884;28;46286;-65
2023/05/27 00:45:53;;;;;;;15.27;8.37;;;13.20;35.60;;;;;;5063716;28;46828;-66
2023/05/27 00:48:19;;;;;;;13.90;7.67;;;13.20;35.60;;;;;;5068513;28;46400;-65
2023/05/27 00:50:45;;;;;;;14.73;9.50;;;13.10;35.50;;;;;;5066526;27;46386;-67
2023/05/27 00:53:11;;;;;;;21.67;8.83;;;13.10;35.70;;;;;;5063524;28;46669;-66
2023/05/27 00:55:36;;;;;;;16.43;9.33;;;13.00;35.70;;;;;;5064478;28;46438;-66
2023/05/27 00:58:04;;;;;;;16.20;8.37;;;13.00;35.90;;;;;;5062929;28;47230;-66
2023/05/27 01:00:31;;;;;;;15.83;8.60;;;12.90;35.90;;;;;;5066237;28;46519;-66
2023/05/27 01:02:57;;;;;;;15.23;8.73;;;12.90;36.20;;;;;;5064905;27;46385;-66
2023/05/27 01:05:23;;;;;;;12.60;7.90;;;12.80;36.20;;;;;;5062994;28;46314;-66
2023/05/27 01:08:22;;;;;;;15.00;7.90;;;12.80;36.30;;;;;;5063609;28;46409;-65
2023/05/27 01:10:53;;;;;;;17.33;8.50;;;12.80;36.40;;;;;;5075386;27;46654;-66
2023/05/27 01:13:35;;;;;;;11.90;8.03;;;12.80;36.30;;;;;;5062869;28;46392;-66
2023/05/27 01:16:05;;;;;;;17.90;8.13;;;12.70;36.40;;;;;;5060000;28;46420;-66
2023/05/27 01:18:33;;;;;;;15.83;9.23;;;12.70;36.20;;;;;;5064320;27;48689;-66
2023/05/27 01:21:12;;;;;;;14.33;7.80;;;12.60;36.10;;;;;;5069394;28;46496;-65
2023/05/27 01:23:38;;;;;;;18.20;8.57;;;12.60;36.30;;;;;;5065447;28;46969;-65
2023/05/27 01:26:05;;;;;;;14.90;7.90;;;12.60;36.30;;;;;;5070790;28;46405;-65
2023/05/27 01:28:31;;;;;;;16.73;9.17;;;12.60;36.40;;;;;;5070192;28;46317;-65
2023/05/27 01:31:05;;;;;;;11.87;8.27;;;12.50;36.40;;;;;;5064870;28;45868;-65
2023/05/27 01:33:35;;;;;;;15.00;8.00;;;12.50;36.50;;;;;;5069513;28;46210;-65
2023/05/27 01:36:15;;;;;;;16.37;8.40;;;12.50;36.30;;;;;;5066813;28;46309;-66
2023/05/27 01:38:43;;;;;;;15.13;8.27;;;12.40;36.30;;;;;;5065346;28;47122;-66
2023/05/27 01:41:10;;;;;;;15.97;8.20;;;12.40;36.40;;;;;;5066645;28;46638;-66
2023/05/27 01:43:38;;;;;;;17.50;9.60;;;12.40;36.60;;;;;;5066601;28;46431;-66
2023/05/27 01:46:04;;;;;;;12.63;8.17;;;12.40;36.60;;;;;;5065525;28;46362;-66
2023/05/27 01:48:30;;;;;;;15.20;8.30;;;12.30;36.70;;;;;;5061689;28;46928;-66
2023/05/27 01:50:56;;;;;;;16.67;8.23;;;12.30;36.70;;;;;;5067355;28;46739;-66
2023/05/27 01:53:21;;;;;;;16.77;9.43;;;12.30;36.80;;;;;;5069397;28;46356;-66
2023/05/27 01:55:47;;;;;;;17.60;8.57;;;12.30;36.70;;;;;;5067305;28;46805;-67
2023/05/27 01:58:12;;;;;;;16.57;9.40;;;12.20;36.90;;;;;;5065655;28;46723;-65
2023/05/27 02:00:38;;;;;;;15.10;9.50;;;12.20;37.40;;;;;;5067145;28;46435;-65
2023/05/27 02:03:04;;;;;;;12.73;8.30;;;12.20;37.20;;;;;;5067338;28;45799;-66
2023/05/27 02:05:29;;;;;;;14.30;8.37;;;12.20;37.40;;;;;;5064536;28;47179;-66
2023/05/27 02:07:55;;;;;;;17.17;7.80;;;12.20;37.50;;;;;;5065415;28;47029;-65
2023/05/27 02:10:21;;;;;;;17.17;9.00;;;12.20;37.60;;;;;;5069363;27;46428;-65
2023/05/27 02:12:47;;;;;;;19.80;9.67;;;12.20;37.60;;;;;;5067357;28;45789;-65
2023/05/27 02:15:13;;;;;;;10.60;7.20;;;12.20;37.50;;;;;;5060280;28;46340;-65
2023/05/27 02:17:39;;;;;;;14.40;8.27;;;12.20;37.60;;;;;;5064705;28;46424;-66
2023/05/27 02:20:05;;;;;;;13.43;8.43;;;12.20;37.40;;;;;;5069867;28;46603;-65
2023/05/27 02:22:30;;;;;;;15.80;8.37;;;12.20;37.50;;;;;;5061955;28;46381;-66
2023/05/27 02:24:56;;;;;;;14.50;7.80;;;12.20;37.40;;;;;;5068471;28;46585;-65
2023/05/27 02:27:22;;;;;;;15.77;7.87;;;12.10;37.60;;;;;;5065358;27;46794;-65
2023/05/27 02:29:47;;;;;;;12.07;8.23;;;12.10;37.70;;;;;;5064983;27;46436;-65
2023/05/27 02:32:13;;;;;;;23.03;8.23;;;12.10;38.00;;;;;;5063761;28;46455;-65
2023/05/27 02:34:40;;;;;;;17.03;9.17;;;12.10;37.80;;;;;;5066937;28;46439;-66
2023/05/27 02:37:06;;;;;;;13.97;8.37;;;12.10;38.00;;;;;;5069355;28;46650;-65
2023/05/27 02:39:32;;;;;;;15.10;8.60;;;12.00;38.10;;;;;;5067734;28;46759;-65
2023/05/27 02:41:58;;;;;;;13.97;9.00;;;12.00;38.30;;;;;;5066242;28;46243;-66
2023/05/27 02:44:23;;;;;;;13.50;9.10;;;12.00;38.30;;;;;;5064617;28;46380;-66
2023/05/27 02:46:49;;;;;;;21.40;8.30;;;11.90;38.20;;;;;;5063748;28;48288;-66
2023/05/27 02:49:15;;;;;;;19.57;8.63;;;11.90;38.30;;;;;;5065782;28;46393;-65
2023/05/27 02:51:40;;;;;;;17.17;8.13;;;11.90;38.30;;;;;;5066573;28;46415;-66
2023/05/27 02:54:06;;;;;;;20.73;8.90;;;11.80;38.50;;;;;;5065720;28;45919;-65
2023/05/27 02:56:32;;;;;;;24.03;9.67;;;11.80;38.60;;;;;;5061993;28;46755;-65
2023/05/27 02:58:57;;;;;;;21.13;9.23;;;11.80;38.70;;;;;;5066263;28;46439;-65
2023/05/27 03:01:23;;;;;;;13.70;7.90;;;11.70;38.80;;;;;;5072910;27;46419;-65
2023/05/27 03:03:48;;;;;;;15.07;8.60;;;11.70;38.90;;;;;;5067758;28;46613;-65
2023/05/27 03:06:14;;;;;;;18.40;10.17;;;11.70;39.10;;;;;;5058997;28;46570;-65
2023/05/27 03:08:40;;;;;;;15.27;9.40;;;11.70;39.20;;;;;;5067940;28;46422;-65
2023/05/27 03:11:05;;;;;;;26.67;9.63;;;11.60;39.30;;;;;;5070205;28;46444;-65
2023/05/27 03:13:31;;;;;;;14.97;8.40;;;11.60;39.40;;;;;;5063558;28;46417;-65
2023/05/27 03:15:58;;;;;;;18.03;9.40;;;11.60;39.60;;;;;;5066103;27;47429;-65
2023/05/27 03:18:23;;;;;;;27.53;9.67;;;11.60;39.90;;;;;;5064342;28;46380;-65
2023/05/27 03:20:50;;;;;;;13.50;8.53;;;11.60;39.90;;;;;;5069398;28;46540;-65
2023/05/27 03:23:15;;;;;;;16.90;8.60;;;11.60;39.90;;;;;;5066320;28;46776;-65
2023/05/27 03:25:41;;;;;;;15.17;8.57;;;11.60;39.90;;;;;;5062274;28;46271;-65
2023/05/27 03:28:07;;;;;;;20.77;11.40;;;11.60;39.80;;;;;;5071198;28;46670;-66
2023/05/27 03:30:32;;;;;;;14.83;8.83;;;11.60;39.60;;;;;;5068141;28;46503;-65
2023/05/27 03:32:58;;;;;;;22.53;10.17;;;11.60;39.40;;;;;;5067161;28;46613;-65
2023/05/27 03:35:23;;;;;;;13.10;8.37;;;11.60;39.40;;;;;;5062289;28;46360;-65
2023/05/27 03:37:49;;;;;;;20.87;9.33;;;11.60;39.20;;;;;;5064816;28;46797;-65
2023/05/27 03:40:15;;;;;;;16.13;9.17;;;11.70;39.20;;;;;;5067140;27;46392;-64
2023/05/27 03:42:40;;;;;;;16.10;10.00;;;11.70;39.00;;;;;;5063232;28;46533;-66
2023/05/27 03:45:07;;;;;;;18.10;9.00;;;11.70;39.20;;;;;;5061441;28;47864;-65
2023/05/27 03:47:34;;;;;;;17.70;8.90;;;11.70;38.90;;;;;;5066566;28;46362;-65
2023/05/27 03:50:00;;;;;;;13.47;9.20;;;11.80;38.80;;;;;;5066057;28;46381;-65
2023/05/27 03:52:26;;;;;;;18.37;10.37;;;11.80;38.80;;;;;;5065294;28;46624;-65
2023/05/27 03:54:51;;;;;;;19.87;11.30;;;11.90;38.50;;;;;;5064595;28;46593;-65
2023/05/27 03:57:17;;;;;;;22.73;10.37;;;11.90;38.50;;;;;;5063650;28;46456;-65
2023/05/27 03:59:42;;;;;;;18.20;10.07;;;12.00;38.50;;;;;;5067832;28;46443;-65
2023/05/27 04:02:08;;;;;;;21.97;9.47;;;12.00;38.30;;;;;;5065010;27;46442;-65
2023/05/27 04:04:34;;;;;;;20.20;8.80;;;12.10;38.10;;;;;;5060282;28;46177;-66
2023/05/27 04:07:01;;;;;;;16.80;8.70;;;12.10;38.00;;;;;;5063187;28;46632;-65
2023/05/27 04:09:26;;;;;;;20.30;8.43;;;12.20;37.90;;;;;;5061146;28;46636;-65
2023/05/27 04:11:52;;;;;;;13.30;8.20;;;12.30;37.70;;;;;;5067198;28;45975;-65
2023/05/27 04:14:17;;;;;;;22.30;10.83;;;12.30;37.80;;;;;;5062273;28;46302;-66
2023/05/27 04:16:44;;;;;;;19.30;8.93;;;12.30;37.80;;;;;;5062540;28;46401;-66
2023/05/27 04:19:09;;;;;;;18.83;7.87;;;12.30;37.90;;;;;;5067621;28;46780;-65
2023/05/27 04:21:36;;;;;;;15.90;8.60;;;12.40;37.70;;;;;;5064888;28;46416;-65
2023/05/27 04:24:03;;;;;;;15.90;7.90;;;12.60;37.50;;;;;;5063330;28;47412;-65
2023/05/27 04:26:28;;;;;;;14.90;8.20;;;12.60;37.40;;;;;;5065177;28;46817;-66
2023/05/27 04:28:54;;;;;;;17.60;7.97;;;12.70;37.40;;;;;;5065058;28;46814;-66
2023/05/27 04:31:19;;;;;;;18.20;8.70;;;12.70;37.20;;;;;;5065713;28;46451;-65
2023/05/27 04:33:45;;;;;;;15.90;8.13;;;12.80;37.00;;;;;;5060663;28;46574;-65
2023/05/27 04:36:11;;;;;;;16.90;7.57;;;12.90;36.70;;;;;;5064237;28;46168;-65
2023/05/27 04:38:36;;;;;;;12.20;7.53;;;13.00;36.60;;;;;;5063857;27;45886;-65
2023/05/27 04:41:03;;;;;;;10.50;7.70;;;13.10;36.40;;;;;;5067300;28;46386;-65
2023/05/27 04:43:30;;;;;;;13.23;8.10;;;13.30;36.20;;;;;;5064143;28;46421;-66
2023/05/27 04:45:59;;;;;;;11.73;6.47;;;13.80;35.20;;;;;;5069142;28;45750;-66
2023/05/27 04:48:24;;;;;;;13.97;7.40;;;14.90;34.10;;;;;;5064764;28;46533;-65
2023/05/27 04:50:53;;;;;;;12.00;7.00;;;15.70;31.80;;;;;;5064702;28;46426;-66
2023/05/27 04:53:19;;;;;;;12.77;6.90;;;16.40;30.70;;;;;;5066576;28;47045;-66
2023/05/27 04:55:45;;;;;;;12.37;6.03;;;17.10;29.70;;;;;;5066308;28;46433;-66
2023/05/27 04:58:12;;;;;;;16.80;7.30;;;17.80;28.60;;;;;;5066484;28;46448;-66
2023/05/27 05:00:57;;;;;;;14.37;6.17;;;18.30;28.00;;;;;;5066490;28;46885;-66
2023/05/27 05:03:36;;;;;;;15.00;6.27;;;18.60;27.60;;;;;;5069069;28;46981;-67
2023/05/27 05:06:02;;;;;;;16.33;6.43;;;19.10;26.60;;;;;;5067673;28;46502;-67
2023/05/27 05:08:28;;;;;;;13.70;6.43;;;19.70;24.50;;;;;;5066242;28;46427;-66
2023/05/27 05:10:54;;;;;;;12.60;6.90;;;19.80;23.70;;;;;;5068675;28;46341;-66
2023/05/27 05:13:19;;;;;;;13.97;5.93;;;20.20;22.60;;;;;;5066942;28;47106;-66
2023/05/27 05:15:45;;;;;;;11.73;7.00;;;20.30;22.60;;;;;;5068407;28;46613;-67
2023/05/27 05:18:11;;;;;;;10.57;5.90;;;20.70;22.90;;;;;;5072428;28;46390;-65
2023/05/27 05:20:37;;;;;;;13.63;7.20;;;20.80;21.50;;;;;;5066327;28;46634;-65
2023/05/27 05:23:03;;;;;;;13.10;6.93;;;20.80;20.80;;;;;;5068756;28;46587;-65
2023/05/27 05:25:37;;;;;;;12.47;6.90;;;20.60;20.20;;;;;;5068077;28;45881;-64
2023/05/27 05:28:04;;;;;;;18.33;7.10;;;20.60;19.80;;;;;;5068070;28;46366;-66
2023/05/27 05:30:30;;;;;;;18.73;6.93;;;21.20;19.00;;;;;;5066988;28;46424;-66
2023/05/27 05:32:55;;;;;;;12.47;6.43;;;21.70;17.60;;;;;;5072229;28;46453;-66
2023/05/27 05:35:21;;;;;;;12.10;6.10;;;22.30;15.60;;;;;;5066174;28;46412;-67
2023/05/27 05:37:46;;;;;;;17.03;7.87;;;22.40;15.50;;;;;;5064686;27;46414;-66
2023/05/27 05:40:12;;;;;;;29.50;13.80;;;22.70;14.80;;;;;;5063387;28;46455;-66
2023/05/27 05:42:38;;;;;;;21.50;11.00;;;22.50;14.60;;;;;;5067174;28;46473;-66
2023/05/27 05:45:05;;;;;;;22.13;9.27;;;22.50;14.20;;;;;;5066440;28;46797;-66
2023/05/27 05:47:30;;;;;;;16.47;7.37;;;22.40;14.00;;;;;;5066335;28;46656;-66
2023/05/27 05:49:56;;;;;;;17.27;7.40;;;23.00;13.00;;;;;;5066241;28;46384;-67
2023/05/27 05:52:21;;;;;;;12.53;6.37;;;23.50;11.90;;;;;;5066239;28;46573;-67
2023/05/27 05:54:47;;;;;;;12.20;6.00;;;23.60;11.50;;;;;;5064797;28;46360;-66
2023/05/27 05:57:13;;;;;;;12.20;6.20;;;23.60;11.10;;;;;;5066039;28;46364;-66
2023/05/27 05:59:38;;;;;;;15.90;6.57;;;22.70;13.30;;;;;;5066094;28;46697;-65
2023/05/27 06:02:04;;;;;;;20.43;6.87;;;21.50;15.80;;;;;;5066701;28;46211;-64
2023/05/27 06:04:29;;;;;;;9.20;5.77;;;20.50;17.90;;;;;;5069631;28;45916;-67
2023/05/27 06:06:55;;;;;;;12.43;6.40;;;19.50;18.80;;;;;;5070733;28;46420;-64
2023/05/27 06:09:22;;;;;;;13.80;6.07;;;19.20;19.90;;;;;;5066206;28;46687;-66
2023/05/27 06:11:48;;;;;;;13.33;6.40;;;18.80;20.50;;;;;;5071145;28;46967;-65
2023/05/27 06:14:13;;;;;;;14.33;6.70;;;18.70;20.70;;;;;;5060358;28;46526;-65
2023/05/27 06:16:39;;;;;;;14.33;6.30;;;18.60;20.40;;;;;;5067899;28;46713;-65
2023/05/27 06:19:05;;;;;;;15.30;5.73;;;18.50;20.30;;;;;;5068427;28;46416;-65
2023/05/27 06:21:32;;;;;;;14.20;5.97;;;18.40;19.70;;;;;;5069114;28;46376;-65
2023/05/27 06:23:58;;;;;;;11.50;5.63;;;18.40;19.70;;;;;;5068696;28;46611;-65
2023/05/27 06:26:24;;;;;;;12.73;5.87;;;18.40;19.20;;;;;;5066210;28;46384;-65
2023/05/27 06:28:50;;;;;;;14.00;6.17;;;18.40;18.90;;;;;;5068700;28;46854;-66
2023/05/27 06:31:15;;;;;;;13.07;6.00;;;18.30;18.20;;;;;;5071517;28;46722;-66
2023/05/27 06:33:42;;;;;;;14.53;6.03;;;18.40;18.00;;;;;;5066001;28;46423;-66
2023/05/27 06:36:07;;;;;;;19.93;6.47;;;18.30;17.90;;;;;;5071072;28;46450;-65
2023/05/27 06:38:33;;;;;;;13.80;6.90;;;18.20;18.00;;;;;;5069071;27;45984;-66
2023/05/27 06:40:58;;;;;;;16.77;5.77;;;18.20;18.00;;;;;;5069176;28;46333;-63
2023/05/27 06:43:24;;;;;;;17.83;6.13;;;18.30;17.90;;;;;;5065115;28;45771;-66
2023/05/27 06:45:49;;;;;;;17.10;6.30;;;18.30;17.90;;;;;;5064835;28;46761;-66
2023/05/27 06:48:15;;;;;;;20.40;6.60;;;18.40;18.10;;;;;;5066337;28;46246;-66
2023/05/27 06:50:41;;;;;;;15.57;6.70;;;18.60;17.80;;;;;;5065806;28;46427;-66
2023/05/27 06:53:06;;;;;;;19.50;6.17;;;18.60;17.80;;;;;;5066915;27;46389;-66
2023/05/27 06:55:32;;;;;;;16.27;5.60;;;18.60;18.10;;;;;;5069455;28;45852;-66
2023/05/27 06:57:57;;;;;;;11.47;5.47;;;18.70;17.90;;;;;;5069921;27;46435;-66
2023/05/27 07:00:23;;;;;;;17.87;5.60;;;18.60;17.70;;;;;;5070336;28;46342;-66
2023/05/27 07:02:48;;;;;;;14.73;6.20;;;18.50;17.80;;;;;;5066851;28;46478;-66
2023/05/27 07:05:14;;;;;;;14.43;6.10;;;18.60;17.60;;;;;;5066089;28;46474;-66
2023/05/27 07:07:40;;;;;;;14.53;5.27;;;18.60;17.40;;;;;;5070161;28;46469;-66
2023/05/27 07:10:06;;;;;;;13.07;5.63;;;18.60;17.30;;;;;;5066653;28;47530;-66
2023/05/27 07:12:32;;;;;;;20.83;5.60;;;18.80;17.30;;;;;;5065788;28;46394;-66
2023/05/27 07:14:57;;;;;;;17.00;5.80;;;18.80;17.20;;;;;;5064608;28;46378;-66
2023/05/27 07:17:23;;;;;;;14.40;5.40;;;18.80;17.00;;;;;;5067277;28;46306;-66
2023/05/27 07:19:48;;;;;;;19.50;5.60;;;18.80;16.70;;;;;;5067542;28;46790;-66
2023/05/27 07:22:14;;;;;;;15.37;5.67;;;18.80;16.50;;;;;;5067926;27;46312;-66
2023/05/27 07:24:39;;;;;;;14.60;5.47;;;18.70;16.90;;;;;;5068076;27;45861;-66
2023/05/27 07:27:06;;;;;;;17.13;5.80;;;18.70;16.70;;;;;;5064256;28;45853;-65
2023/05/27 07:29:32;;;;;;;11.80;5.77;;;18.70;16.70;;;;;;5068521;28;47087;-66
2023/05/27 07:31:58;;;;;;;13.27;5.20;;;18.60;16.30;;;;;;5065852;28;46650;-66
2023/05/27 07:34:24;;;;;;;11.90;4.93;;;18.70;16.30;;;;;;5067347;28;45898;-66
2023/05/27 07:36:50;;;;;;;16.73;6.30;;;18.80;16.40;;;;;;5065780;28;46290;-66
2023/05/27 07:39:15;;;;;;;13.70;5.67;;;18.90;16.50;;;;;;5067173;27;46586;-65
2023/05/27 07:41:41;;;;;;;15.53;5.20;;;19.10;16.50;;;;;;5069739;28;46404;-66
2023/05/27 07:44:06;;;;;;;26.20;6.20;;;19.10;16.20;;;;;;5065823;28;46426;-66
2023/05/27 07:46:32;;;;;;;26.13;5.50;;;19.20;16.00;;;;;;5063011;28;46569;-65
2023/05/27 07:48:58;;;;;;;25.03;5.63;;;19.20;15.80;;;;;;5069498;27;47207;-65
2023/05/27 07:51:23;;;;;;;15.97;5.93;;;19.20;15.90;;;;;;5070746;28;46617;-65
2023/05/27 07:53:49;;;;;;;13.40;5.33;;;19.20;15.30;;;;;;5069434;28;46273;-65
2023/05/27 07:56:15;;;;;;;19.80;5.60;;;19.30;15.50;;;;;;5067734;28;46783;-65
2023/05/27 07:58:41;;;;;;;25.50;5.60;;;19.40;15.20;;;;;;5067889;28;46378;-65
2023/05/27 08:01:06;;;;;;;19.03;5.37;;;19.30;14.90;;;;;;5067235;28;46467;-65
2023/05/27 08:03:32;;;;;;;19.53;6.00;;;19.50;15.10;;;;;;5069442;28;46424;-65
2023/05/27 08:05:57;;;;;;;18.33;5.43;;;19.70;14.80;;;;;;5066838;28;46423;-65
2023/05/27 08:08:23;;;;;;;15.67;6.73;;;19.60;15.50;;;;;;5064581;28;47338;-64
2023/05/27 08:10:48;;;;;;;18.83;5.40;;;19.40;14.90;;;;;;5066054;28;46368;-65
2023/05/27 08:13:14;;;;;;;31.03;6.40;;;19.40;15.00;;;;;;5062370;28;46589;-64
2023/05/27 08:15:40;;;;;;;28.47;6.17;;;19.50;15.20;;;;;;5065507;28;46622;-65
2023/05/27 08:18:05;;;;;;;44.80;6.10;;;19.70;15.00;;;;;;5066326;28;47679;-66
2023/05/27 08:20:31;;;;;;;13.60;5.10;;;19.80;14.60;;;;;;5067460;28;46388;-66
2023/05/27 08:22:56;;;;;;;17.67;6.10;;;19.90;14.50;;;;;;5067843;28;46295;-66
2023/05/27 08:25:22;;;;;;;19.97;5.83;;;20.10;14.10;;;;;;5066692;28;46287;-66
2023/05/27 08:27:51;;;;;;;11.77;5.80;;;20.20;13.90;;;;;;5063753;28;47145;-67
2023/05/27 08:30:18;;;;;;;16.17;7.00;;;20.20;13.90;;;;;;5067540;28;47098;-66
2023/05/27 08:32:44;;;;;;;16.63;5.13;;;20.30;13.50;;;;;;5063384;28;45864;-67
2023/05/27 08:35:10;;;;;;;20.50;5.77;;;20.40;13.70;;;;;;5067502;28;46396;-66
2023/05/27 08:37:36;;;;;;;14.83;6.40;;;20.60;13.80;;;;;;5064846;27;46452;-66
2023/05/27 08:40:06;;;;;;;21.27;6.23;;;20.80;13.60;;;;;;5063272;28;46488;-66
2023/05/27 08:42:32;;;;;;;13.47;5.70;;;20.80;13.60;;;;;;5063585;28;46340;-66
2023/05/27 08:44:59;;;;;;;15.40;5.20;;;20.60;13.50;;;;;;5066111;27;46565;-66
2023/05/27 08:47:28;;;;;;;15.57;5.87;;;20.50;13.90;;;;;;5063756;28;46388;-67
2023/05/27 08:49:53;;;;;;;14.93;5.70;;;20.60;14.10;;;;;;5064514;27;46426;-66
2023/05/27 08:52:20;;;;;;;11.43;5.37;;;20.50;13.60;;;;;;5068020;27;46362;-65
2023/05/27 08:54:48;;;;;;;24.03;5.80;;;20.50;13.60;;;;;;5065982;27;45848;-65
2023/05/27 08:57:17;;;;;;;18.17;5.67;;;20.70;13.60;;;;;;5062936;28;47037;-65
2023/05/27 08:59:43;;;;;;;18.67;5.50;;;20.80;13.40;;;;;;5063784;28;46387;-65
2023/05/27 09:02:12;;;;;;;18.10;5.90;;;20.80;13.10;;;;;;5064982;28;46367;-67
2023/05/27 09:04:41;;;;;;;16.53;6.60;;;21.00;13.40;;;;;;5063444;28;46464;-64
2023/05/27 09:07:07;;;;;;;15.93;5.60;;;21.00;12.70;;;;;;5055718;28;47141;-64
2023/05/27 09:09:33;;;;;;;18.23;6.20;;;21.10;13.30;;;;;;5062455;28;46424;-67
2023/05/27 09:12:03;;;;;;;16.97;6.37;;;21.20;13.20;;;;;;5076768;27;46380;-62
2023/05/27 09:14:32;;;;;;;19.30;6.20;;;21.20;13.40;;;;;;5059148;28;46160;-67
2023/05/27 09:17:05;;;;;;;16.43;5.67;;;21.20;13.40;;;;;;5060441;28;46589;-64
2023/05/27 09:19:31;;;;;;;17.20;6.60;;;21.10;13.30;;;;;;5061724;28;46566;-63
2023/05/27 09:21:56;;;;;;;17.27;6.73;;;21.10;13.10;;;;;;5068045;28;46492;-64
2023/05/27 09:24:26;;;;;;;18.93;6.20;;;21.00;13.20;;;;;;5067133;27;46894;-63
2023/05/27 09:26:52;;;;;;;17.13;6.33;;;21.00;13.40;;;;;;5064672;28;47307;-63
2023/05/27 09:29:19;;;;;;;15.13;6.40;;;21.00;13.30;;;;;;5066582;28;46443;-63
2023/05/27 09:31:45;;;;;;;14.47;5.70;;;21.10;13.30;;;;;;5065233;28;46589;-62
2023/05/27 09:34:19;;;;;;;14.80;7.00;;;21.10;12.90;;;;;;5065463;28;46304;-64
2023/05/27 09:36:46;;;;;;;16.97;5.33;;;21.20;12.50;;;;;;5061797;27;46447;-64
2023/05/27 09:39:14;;;;;;;17.70;6.90;;;21.10;12.60;;;;;;5068615;27;46371;-63
2023/05/27 09:41:40;;;;;;;12.90;5.70;;;21.30;12.30;;;;;;5068080;28;46427;-63
2023/05/27 09:44:06;;;;;;;19.57;6.37;;;21.50;12.40;;;;;;5066849;28;46832;-63
2023/05/27 09:46:33;;;;;;;12.23;5.63;;;21.20;12.70;;;;;;5069249;28;46459;-63
2023/05/27 09:49:03;;;;;;;17.43;6.43;;;21.10;12.80;;;;;;5069280;28;46602;-63
2023/05/27 09:51:29;;;;;;;15.20;6.20;;;20.90;13.10;;;;;;5071100;27;46364;-62
2023/05/27 09:53:57;;;;;;;18.67;6.30;;;21.10;13.20;;;;;;5067935;28;46413;-63
2023/05/27 09:56:27;;;;;;;16.17;5.70;;;21.00;13.20;;;;;;5071451;28;46464;-64
2023/05/27 09:58:56;;;;;;;13.40;6.07;;;20.90;13.10;;;;;;5065965;28;46547;-63
2023/05/27 10:01:28;;;;;;;15.17;5.93;;;20.80;12.90;;;;;;5070398;28;46379;-63
2023/05/27 10:03:54;;;;;;;30.53;6.20;;;20.70;13.00;;;;;;5064350;28;46722;-64
2023/05/27 10:06:21;;;;;;;20.03;7.00;;;20.90;13.00;;;;;;5067320;28;47727;-63
2023/05/27 10:08:47;;;;;;;15.53;5.50;;;20.90;13.00;;;;;;5066950;28;46689;-63
2023/05/27 10:11:13;;;;;;;16.40;6.30;;;21.10;12.70;;;;;;5071990;28;46729;-64
2023/05/27 10:13:39;;;;;;;18.23;6.10;;;21.10;12.40;;;;;;5067239;28;45938;-63
2023/05/27 10:16:06;;;;;;;14.17;6.20;;;21.00;12.00;;;;;;5066170;28;46697;-63
2023/05/27 10:18:33;;;;;;;23.00;7.20;;;21.10;12.30;;;;;;5067182;28;46433;-63
2023/05/27 10:21:03;;;;;;;18.00;6.00;;;21.10;12.10;;;;;;5064254;27;46729;-63
2023/05/27 10:23:31;;;;;;;13.20;5.60;;;21.20;12.20;;;;;;5066168;28;46724;-63
2023/05/27 10:26:07;;;;;;;11.33;5.57;;;21.30;12.20;;;;;;5064258;28;46552;-63
2023/05/27 10:28:41;;;;;;;16.67;5.73;;;21.40;11.50;;;;;;5066881;28;46401;-64
2023/05/27 10:31:09;;;;;;;15.37;5.90;;;21.50;12.80;;;;;;5062938;28;46400;-63
2023/05/27 10:33:37;;;;;;;17.07;6.50;;;21.20;12.10;;;;;;5068421;28;46364;-63
2023/05/27 10:36:05;;;;;;;14.53;5.60;;;21.20;11.60;;;;;;5065819;28;47090;-63
2023/05/27 10:38:31;;;;;;;11.97;5.87;;;21.10;11.40;;;;;;5066382;28;46518;-62
2023/05/27 10:41:01;;;;;;;15.40;5.83;;;21.20;12.00;;;;;;5065339;28;46598;-65
2023/05/27 10:43:29;;;;;;;12.63;5.50;;;21.40;11.70;;;;;;5069293;27;46542;-63
2023/05/27 10:46:21;;;;;;;11.97;5.33;;;21.60;11.40;;;;;;5071218;28;46484;-63
2023/05/27 10:48:47;;;;;;;14.60;6.10;;;21.40;11.10;;;;;;5066942;28;46172;-64
2023/05/27 10:51:12;;;;;;;18.77;6.07;;;21.60;11.20;;;;;;5063359;27;46461;-64
2023/05/27 10:53:38;;;;;;;16.57;6.47;;;21.70;10.70;;;;;;5067876;28;46388;-64
2023/05/27 10:56:04;;;;;;;12.10;5.50;;;21.70;10.70;;;;;;5064667;28;46436;-64
2023/05/27 10:58:34;;;;;;;15.60;6.37;;;21.40;10.70;;;;;;5068350;28;46481;-64
2023/05/27 11:01:07;;;;;;;16.90;6.30;;;21.30;10.70;;;;;;5066963;28;46605;-64
2023/05/27 11:03:32;;;;;;;12.87;5.00;;;21.40;11.10;;;;;;5064364;28;46429;-64
2023/05/27 11:06:02;;;;;;;13.97;5.00;;;21.50;10.60;;;;;;5067367;28;46995;-64
2023/05/27 11:08:31;;;;;;;15.77;5.67;;;21.60;10.50;;;;;;5064073;28;46392;-63
2023/05/27 11:11:01;;;;;;;14.60;6.10;;;21.70;10.00;;;;;;5067338;28;46556;-64
2023/05/27 11:13:34;;;;;;;11.80;5.73;;;21.80;10.10;;;;;;5067130;28;46597;-64
2023/05/27 11:16:01;;;;;;;17.97;6.10;;;21.70;9.80;;;;;;5061717;28;47053;-64
2023/05/27 11:18:37;;;;;;;15.77;5.60;;;21.70;9.90;;;;;;5068753;28;45774;-65
2023/05/27 11:21:04;;;;;;;12.53;5.97;;;21.80;9.90;;;;;;5069553;28;46438;-65
2023/05/27 11:23:49;;;;;;;13.30;6.03;;;21.80;10.10;;;;;;5064493;27;47114;-65
2023/05/27 11:26:19;;;;;;;15.87;6.10;;;21.90;10.00;;;;;;5065310;28;48464;-63
2023/05/27 11:28:51;;;;;;;20.30;6.33;;;21.90;10.20;;;;;;5067840;28;46436;-63
2023/05/27 11:31:19;;;;;;;15.53;5.30;;;22.20;10.20;;;;;;5064441;28;46470;-63
2023/05/27 11:33:46;;;;;;;12.50;5.77;;;21.80;9.10;;;;;;5064219;27;46434;-63
2023/05/27 11:36:13;;;;;;;21.43;6.50;;;21.80;9.70;;;;;;5065776;28;46661;-64
2023/05/27 11:38:47;;;;;;;10.73;5.10;;;21.90;9.30;;;;;;5066403;27;46681;-64
2023/05/27 11:41:12;;;;;;;16.43;5.73;;;21.90;9.20;;;;;;5066508;28;46334;-63
2023/05/27 11:43:50;;;;;;;11.47;5.47;;;21.90;9.20;;;;;;5063469;28;46428;-65
2023/05/27 11:46:16;;;;;;;13.03;6.00;;;21.90;9.10;;;;;;5066400;28;46122;-65
2023/05/27 11:48:43;;;;;;;11.40;5.47;;;22.10;8.80;;;;;;5065104;28;46651;-65
2023/05/27 11:51:09;;;;;;;16.63;6.40;;;22.20;8.60;;;;;;5066978;28;46360;-64
2023/05/27 11:53:38;;;;;;;10.27;5.23;;;22.30;8.60;;;;;;5068141;28;46724;-65
2023/05/27 11:56:04;;;;;;;15.83;6.10;;;22.30;8.00;;;;;;5065243;28;47344;-64
2023/05/27 11:58:30;;;;;;;17.73;5.83;;;22.10;7.40;;;;;;5064888;28;46447;-65
2023/05/27 12:00:55;;;;;;;15.53;5.33;;;22.10;8.00;;;;;;5062212;28;46860;-64
2023/05/27 12:03:21;;;;;;;16.87;5.57;;;22.20;7.90;;;;;;5063541;28;46627;-64
2023/05/27 12:05:47;;;;;;;15.90;5.80;;;21.90;7.70;;;;;;5068838;28;46945;-64
2023/05/27 12:08:12;;;;;;;14.20;5.93;;;22.00;8.20;;;;;;5062831;28;46424;-64
2023/05/27 12:10:38;;;;;;;16.20;5.60;;;22.20;8.20;;;;;;5063925;28;46387;-65
2023/05/27 12:13:05;;;;;;;12.20;4.93;;;22.10;7.90;;;;;;5066143;28;46462;-65
2023/05/27 12:15:31;;;;;;;16.23;5.80;;;22.10;8.10;;;;;;5065264;28;46135;-64
2023/05/27 12:17:57;;;;;;;14.13;6.00;;;22.10;8.50;;;;;;5063330;28;45895;-64
2023/05/27 12:20:27;;;;;;;13.37;5.40;;;22.20;8.50;;;;;;5063399;28;46899;-64
2023/05/27 12:22:55;;;;;;;14.80;5.93;;;22.20;7.90;;;;;;5063435;28;46307;-64
2023/05/27 12:25:21;;;;;;;15.93;6.30;;;22.20;7.50;;;;;;5065834;28;46406;-64
2023/05/27 12:27:46;;;;;;;19.33;5.90;;;21.90;7.00;;;;;;5065596;28;46598;-64
2023/05/27 12:30:13;;;;;;;14.20;6.10;;;21.70;7.30;;;;;;5066612;28;46493;-64
2023/05/27 12:32:39;;;;;;;11.87;5.73;;;21.90;7.60;;;;;;5066661;28;46567;-64
2023/05/27 12:35:05;;;;;;;12.50;5.80;;;22.20;8.00;;;;;;5063504;27;46055;-64
2023/05/27 12:37:31;;;;;;;19.20;6.80;;;22.30;7.60;;;;;;5063648;28;46499;-64